Riverdale, Kansas
Current Conditions -  °F | °C
As of 11:54 AM on Wednesday 28 Jan 2015 (Local Time) from KWLD Reporting Station
Clear Clear  
Wind Chill: 75°   Ceiling: Unl
Heat Index: 75°   Visibility: 10mi
Dew Point: 31°   Wind: 24mph
Humidity: 20%   Direction: 200°SSW
Pressure: 29.86"   Gusts: 31mph
Location:  37.2413°N, 97.3686°W
Report Text: KWLD 281754Z AUTO 20021G27KT 10SM CLR 24/M01 A2986 RMK AO2 PK WND 21028/1737 SLP105 T02391006 10239 20100 58025
Loading
Personal Weather Stations






























Interactive Weather Map New forecast layout! Learn more

10-Day Weather Forecast

Advertisements
Track Severe Weather on mobile